Time;durP1;ratioP1;P1;durP2;ratioP2;P2;SDS_P1;SDS_P2;PMS_P1;PMS_P2;Temp;Humidity;BMP_temperature;BMP_pressure;BME280_temperature;BME280_humidity;BME280_pressure;Samples;Min_cycle;Max_cycle;Signal;HPM_P1;HPM_P2
2022/10/05 00:00:58;;;;;;;8.17;7.40;;;;;20.20;100754.00;;;;2052160;28;20236;-66
2022/10/05 00:01:58;;;;;;;6.97;6.35;;;;;20.20;100757.00;;;;2051051;28;20215;-65
2022/10/05 00:02:58;;;;;;;6.73;6.00;;;;;20.20;100747.00;;;;2051504;28;20307;-66
2022/10/05 00:04:10;;;;;;;8.30;6.77;;;;;20.20;100744.00;;;;2043221;29;20220;-65
2022/10/05 00:05:26;;;;;;;7.55;6.50;;;;;20.20;100749.00;;;;2047084;29;20220;-66
2022/10/05 00:06:27;;;;;;;7.07;6.43;;;;;20.20;100744.00;;;;2048640;28;20274;-65
2022/10/05 00:07:28;;;;;;;7.00;6.30;;;;;20.30;100727.00;;;;2051189;28;20223;-66
2022/10/05 00:08:32;;;;;;;6.30;5.70;;;;;20.20;100740.00;;;;2051464;28;20224;-65
2022/10/05 00:09:32;;;;;;;7.53;6.15;;;;;20.30;100740.00;;;;2055016;28;20226;-67
2022/10/05 00:10:33;;;;;;;7.47;6.47;;;;;20.20;100736.00;;;;2051820;28;20223;-66
2022/10/05 00:11:33;;;;;;;9.00;6.73;;;;;20.20;100734.00;;;;2051875;28;20748;-65
2022/10/05 00:12:33;;;;;;;7.43;6.73;;;;;20.20;100731.00;;;;2051642;28;20759;-66
2022/10/05 00:13:34;;;;;;;7.00;6.20;;;;;20.20;100735.00;;;;2052546;28;20227;-66
2022/10/05 00:14:34;;;;;;;8.20;6.80;;;;;20.20;100733.00;;;;2052066;28;20212;-65
2022/10/05 00:15:35;;;;;;;9.93;6.40;;;;;20.20;100718.00;;;;2052068;28;21310;-67
2022/10/05 00:16:35;;;;;;;6.13;5.40;;;;;20.20;100732.00;;;;2052159;28;20247;-67
2022/10/05 00:17:35;;;;;;;7.00;6.30;;;;;20.20;100729.00;;;;2051610;28;20287;-65
2022/10/05 00:18:36;;;;;;;7.07;6.47;;;;;20.20;100732.00;;;;2051950;28;20207;-66
2022/10/05 00:19:37;;;;;;;6.67;6.00;;;;;19.70;100712.00;;;;2051254;28;20250;-67
2022/10/05 00:20:37;;;;;;;6.97;5.73;;;;;20.20;100725.00;;;;2051236;28;20204;-66
2022/10/05 00:21:37;;;;;;;6.43;5.40;;;;;20.20;100704.00;;;;2042926;29;20528;-66
2022/10/05 00:22:38;;;;;;;6.83;5.63;;;;;20.20;100724.00;;;;2043795;29;20220;-66
2022/10/05 00:23:38;;;;;;;6.87;6.17;;;;;20.20;100723.00;;;;2044095;29;20291;-66
2022/10/05 00:24:38;;;;;;;6.20;5.60;;;;;20.20;100720.00;;;;2036194;29;20209;-66
2022/10/05 00:25:38;;;;;;;5.80;4.90;;;;;20.20;100717.00;;;;2044007;29;20216;-66
2022/10/05 00:26:39;;;;;;;8.00;6.17;;;;;20.20;100700.00;;;;2047398;29;20287;-66
2022/10/05 00:27:39;;;;;;;6.03;5.30;;;;;20.20;100724.00;;;;2047824;29;20220;-66
2022/10/05 00:28:40;;;;;;;7.00;6.33;;;;;20.20;100721.00;;;;2050263;28;20259;-67
2022/10/05 00:29:40;;;;;;;7.13;6.03;;;;;20.20;100699.00;;;;2043672;29;20217;-66
2022/10/05 00:30:40;;;;;;;6.30;5.70;;;;;20.20;100715.00;;;;2053239;28;20635;-66
2022/10/05 00:31:41;;;;;;;7.10;5.93;;;;;20.20;100724.00;;;;2052764;28;20212;-66
2022/10/05 00:32:42;;;;;;;6.30;5.70;;;;;20.20;100720.00;;;;2053572;28;20208;-66
2022/10/05 00:33:42;;;;;;;5.72;5.22;;;;;20.20;100723.00;;;;2053841;28;20216;-66
2022/10/05 00:34:43;;;;;;;6.07;5.47;;;;;20.20;100710.00;;;;2052571;28;20727;-66
2022/10/05 00:35:44;;;;;;;5.65;5.13;;;;;20.20;100722.00;;;;2052882;28;20228;-66
2022/10/05 00:36:44;;;;;;;6.27;5.20;;;;;20.20;100723.00;;;;2050614;28;20696;-66
2022/10/05 00:37:44;;;;;;;6.83;6.13;;;;;20.20;100724.00;;;;2051545;28;20564;-66
2022/10/05 00:38:45;;;;;;;5.67;5.17;;;;;20.20;100715.00;;;;2051617;28;20690;-66
2022/10/05 00:39:45;;;;;;;6.10;5.60;;;;;20.20;100717.00;;;;2051758;28;20212;-66
2022/10/05 00:41:10;;;;;;;5.60;5.10;;;;;20.20;100723.00;;;;2043982;29;20260;-66
2022/10/05 00:42:29;;;;;;;8.68;5.40;;;;;20.20;100717.00;;;;2050024;28;20715;-66
2022/10/05 00:43:54;;;;;;;5.80;5.20;;;;;20.20;100719.00;;;;2051689;28;20227;-65
2022/10/05 00:45:17;;;;;;;5.82;4.68;;;;;20.20;100720.00;;;;2053990;28;20298;-66
2022/10/05 00:46:22;;;;;;;5.72;5.10;;;;;20.20;100721.00;;;;2052296;28;20270;-66
2022/10/05 00:47:35;;;;;;;6.18;5.25;;;;;20.20;100717.00;;;;2051952;28;20216;-66
2022/10/05 00:48:51;;;;;;;5.72;5.22;;;;;20.20;100709.00;;;;2051404;28;20303;-66
2022/10/05 00:50:10;;;;;;;7.20;5.40;;;;;20.10;100725.00;;;;2043156;29;20376;-66
2022/10/05 00:51:30;;;;;;;5.55;5.05;;;;;20.20;100695.00;;;;2045994;28;20247;-67
2022/10/05 00:52:42;;;;;;;5.80;5.30;;;;;20.20;100730.00;;;;2035254;29;20242;-66
2022/10/05 00:54:07;;;;;;;6.00;5.50;;;;;20.10;100711.00;;;;2039231;28;20244;-66
2022/10/05 00:55:30;;;;;;;6.00;5.50;;;;;20.10;100728.00;;;;2051521;28;20789;-65
2022/10/05 00:56:46;;;;;;;6.00;5.20;;;;;20.20;100731.00;;;;2051370;28;20244;-66
2022/10/05 00:58:27;;;;;;;6.15;5.50;;;;;20.10;100731.00;;;;2043637;28;20302;-66
2022/10/05 00:59:43;;;;;;;5.70;5.10;;;;;20.10;100729.00;;;;2050989;28;20204;-66
2022/10/05 01:00:55;;;;;;;6.30;5.10;;;;;20.20;100720.00;;;;2051215;28;20682;-66
2022/10/05 01:02:16;;;;;;;6.82;5.20;;;;;20.20;100720.00;;;;2051051;28;20676;-66
2022/10/05 01:03:36;;;;;;;5.20;4.70;;;;;20.10;100716.00;;;;2052074;28;20295;-66
2022/10/05 01:05:07;;;;;;;5.68;5.07;;;;;20.10;100717.00;;;;2045612;28;20668;-65
2022/10/05 01:06:32;;;;;;;5.80;4.78;;;;;20.10;100717.00;;;;2050732;28;20220;-65
2022/10/05 01:07:59;;;;;;;5.40;4.65;;;;;20.10;100716.00;;;;2050292;28;20737;-65
2022/10/05 01:09:14;;;;;;;5.72;5.20;;;;;20.10;100715.00;;;;2044386;28;20267;-65
2022/10/05 01:10:53;;;;;;;6.13;5.53;;;;;20.10;100712.00;;;;2044947;28;20234;-65
2022/10/05 01:12:03;;;;;;;5.70;4.85;;;;;20.10;100708.00;;;;2043476;29;20291;-66
2022/10/05 01:13:24;;;;;;;5.50;4.88;;;;;20.10;100712.00;;;;2050847;28;20223;-66
2022/10/05 01:14:32;;;;;;;5.90;5.30;;;;;20.10;100710.00;;;;2050755;28;20215;-65
2022/10/05 01:15:41;;;;;;;5.60;4.70;;;;;20.10;100710.00;;;;2050519;28;20216;-66
2022/10/05 01:16:56;;;;;;;5.30;4.80;;;;;20.10;100706.00;;;;2053445;28;20272;-65
2022/10/05 01:18:21;;;;;;;5.03;4.53;;;;;20.10;100687.00;;;;2037227;29;20217;-65
2022/10/05 01:19:46;;;;;;;5.05;4.57;;;;;20.10;100691.00;;;;2040319;28;20303;-65
2022/10/05 01:20:54;;;;;;;5.32;4.78;;;;;20.10;100698.00;;;;2051130;28;20208;-66
2022/10/05 01:21:58;;;;;;;5.07;4.68;;;;;20.10;100704.00;;;;2051504;28;20207;-66
2022/10/05 01:23:10;;;;;;;5.10;4.32;;;;;20.10;100697.00;;;;2046204;29;20331;-65
2022/10/05 01:24:22;;;;;;;5.53;5.00;;;;;20.10;100699.00;;;;2044777;28;20796;-65
2022/10/05 01:25:32;;;;;;;5.70;4.53;;;;;20.00;100702.00;;;;2051949;28;20220;-64
2022/10/05 01:26:59;;;;;;;5.60;5.10;;;;;20.10;100708.00;;;;2043092;29;20795;-65
2022/10/05 01:28:03;;;;;;;4.80;4.40;;;;;20.10;100703.00;;;;2041781;28;20728;-66
2022/10/05 01:29:22;;;;;;;5.97;4.53;;;;;20.10;100700.00;;;;2043941;28;20216;-65
2022/10/05 01:30:22;;;;;;;7.05;5.72;;;;;20.10;100697.00;;;;2051945;28;20216;-65
2022/10/05 01:31:27;;;;;;;6.40;4.83;;;;;20.10;100696.00;;;;2042913;29;20224;-65
2022/10/05 01:32:33;;;;;;;5.50;4.35;;;;;20.10;100692.00;;;;2051013;28;21106;-65
2022/10/05 01:33:41;;;;;;;5.85;4.80;;;;;20.10;100688.00;;;;2052228;28;20684;-66
2022/10/05 01:34:43;;;;;;;5.88;4.95;;;;;20.10;100692.00;;;;2050687;28;20239;-65
2022/10/05 01:35:56;;;;;;;5.15;4.60;;;;;20.10;100686.00;;;;2050629;28;20270;-66
2022/10/05 01:37:03;;;;;;;5.93;4.57;;;;;20.10;100693.00;;;;2051770;28;20334;-66
2022/10/05 01:38:39;;;;;;;5.22;4.30;;;;;20.10;100693.00;;;;2051512;28;20212;-66
2022/10/05 01:40:01;;;;;;;5.38;4.28;;;;;20.10;100680.00;;;;2049212;28;20216;-66
2022/10/05 01:41:05;;;;;;;7.25;4.43;;;;;20.10;100692.00;;;;2051889;28;20672;-66
2022/10/05 01:42:57;;;;;;;6.15;4.90;;;;;20.10;100684.00;;;;2050937;28;20240;-65
2022/10/05 01:44:04;;;;;;;5.00;4.50;;;;;20.10;100686.00;;;;2037138;29;20554;-66
2022/10/05 01:45:14;;;;;;;4.82;4.35;;;;;20.10;100680.00;;;;2042110;29;20700;-66
2022/10/05 01:46:45;;;;;;;5.07;4.15;;;;;20.10;100683.00;;;;2040082;28;20220;-66
2022/10/05 01:48:14;;;;;;;6.25;4.80;;;;;20.10;100684.00;;;;2050430;28;20217;-66
2022/10/05 01:49:37;;;;;;;4.95;4.38;;;;;20.10;100678.00;;;;2052780;28;20697;-66
2022/10/05 01:51:09;;;;;;;5.05;4.55;;;;;20.10;100689.00;;;;2050549;28;20469;-66
2022/10/05 01:52:19;;;;;;;4.70;4.20;;;;;20.00;100683.00;;;;2045234;29;20223;-66
2022/10/05 01:53:51;;;;;;;5.00;4.45;;;;;20.10;100676.00;;;;2047922;28;20215;-67
2022/10/05 01:55:23;;;;;;;5.50;4.45;;;;;20.10;100673.00;;;;2042578;29;20213;-66
2022/10/05 01:56:45;;;;;;;5.35;4.35;;;;;20.10;100673.00;;;;2014814;29;20753;-66
2022/10/05 01:58:14;;;;;;;4.85;4.00;;;;;20.00;100666.00;;;;2051081;28;20712;-66
2022/10/05 01:59:16;;;;;;;4.28;3.85;;;;;20.00;100676.00;;;;2048865;28;20239;-66
2022/10/05 02:00:17;;;;;;;6.72;3.85;;;;;20.00;100666.00;;;;2050530;28;20223;-66
2022/10/05 02:01:32;;;;;;;4.90;4.23;;;;;20.00;100674.00;;;;2050993;28;20216;-66
2022/10/05 02:02:36;;;;;;;4.95;4.45;;;;;20.10;100648.00;;;;2050556;28;20303;-65
2022/10/05 02:03:46;;;;;;;4.40;4.00;;;;;20.10;100667.00;;;;2050422;28;20224;-66
2022/10/05 02:05:06;;;;;;;4.32;3.75;;;;;20.10;100663.00;;;;2051213;28;20267;-66
2022/10/05 02:06:18;;;;;;;6.05;4.30;;;;;20.10;100667.00;;;;2045140;28;20993;-66
2022/10/05 02:07:21;;;;;;;5.13;4.32;;;;;20.10;100659.00;;;;2050561;28;20223;-66
2022/10/05 02:08:29;;;;;;;4.40;3.90;;;;;20.10;100645.00;;;;2046080;29;20223;-67
2022/10/05 02:09:36;;;;;;;5.10;4.60;;;;;20.10;100649.00;;;;2040695;28;20223;-66
2022/10/05 02:10:40;;;;;;;4.60;4.20;;;;;20.10;100661.00;;;;2042318;29;20243;-66
2022/10/05 02:11:40;;;;;;;5.75;4.80;;;;;20.10;100665.00;;;;2035347;29;20325;-66
2022/10/05 02:12:41;;;;;;;4.80;4.40;;;;;20.10;100663.00;;;;2034659;29;20296;-66
2022/10/05 02:14:06;;;;;;;4.60;4.20;;;;;20.00;100661.00;;;;2042187;29;20273;-66
2022/10/05 02:15:12;;;;;;;4.50;4.10;;;;;20.00;100662.00;;;;2051273;28;20219;-66
2022/10/05 02:16:35;;;;;;;4.97;4.22;;;;;20.00;100662.00;;;;2051671;28;21279;-66
2022/10/05 02:17:44;;;;;;;5.00;4.07;;;;;20.10;100655.00;;;;2045155;28;20274;-65
2022/10/05 02:18:49;;;;;;;4.68;3.97;;;;;20.10;100656.00;;;;2043835;28;20304;-66
2022/10/05 02:19:51;;;;;;;4.90;4.30;;;;;20.10;100647.00;;;;2050268;28;20215;-65
2022/10/05 02:20:51;;;;;;;5.43;4.40;;;;;20.10;100655.00;;;;2042848;28;20759;-66
2022/10/05 02:21:54;;;;;;;4.63;4.23;;;;;20.00;100662.00;;;;2049663;28;20247;-66
2022/10/05 02:23:01;;;;;;;4.22;3.88;;;;;20.00;100658.00;;;;2047332;28;20215;-67
2022/10/05 02:24:05;;;;;;;6.00;4.35;;;;;20.10;100675.00;;;;2050671;28;20211;-66
2022/10/05 02:25:08;;;;;;;4.60;4.20;;;;;20.00;100629.00;;;;2044393;29;20227;-66
2022/10/05 02:26:10;;;;;;;4.53;4.10;;;;;20.10;100658.00;;;;2032442;29;20308;-66
2022/10/05 02:27:10;;;;;;;4.85;4.40;;;;;20.00;100658.00;;;;2034009;29;20324;-66
2022/10/05 02:28:31;;;;;;;4.70;3.90;;;;;20.00;100650.00;;;;2034448;29;20225;-65
2022/10/05 02:29:31;;;;;;;4.85;4.40;;;;;20.00;100634.00;;;;2039272;28;20628;-66
2022/10/05 02:30:32;;;;;;;5.77;4.30;;;;;20.00;100655.00;;;;2041573;29;20239;-65
2022/10/05 02:31:51;;;;;;;5.63;3.80;;;;;20.00;100657.00;;;;2049835;28;20228;-65
2022/10/05 02:33:00;;;;;;;4.85;4.38;;;;;20.00;100654.00;;;;2039060;29;20228;-66
2022/10/05 02:34:19;;;;;;;4.07;3.67;;;;;20.00;100659.00;;;;2036229;29;20221;-66
2022/10/05 02:35:19;;;;;;;4.10;3.80;;;;;20.00;100658.00;;;;2045444;28;20219;-66
2022/10/05 02:36:24;;;;;;;4.80;4.20;;;;;20.00;100622.00;;;;2042388;29;20215;-66
2022/10/05 02:38:05;;;;;;;4.53;4.13;;;;;20.00;100666.00;;;;2042920;29;20223;-66
2022/10/05 02:39:13;;;;;;;5.40;4.32;;;;;20.00;100655.00;;;;2039592;29;20677;-66
2022/10/05 02:40:41;;;;;;;4.57;4.18;;;;;20.00;100649.00;;;;2042978;28;20224;-66
2022/10/05 02:41:57;;;;;;;5.13;4.63;;;;;20.00;100649.00;;;;2053962;28;20211;-65
2022/10/05 02:43:16;;;;;;;4.38;3.97;;;;;20.00;100653.00;;;;2050625;28;20230;-66
2022/10/05 02:44:34;;;;;;;5.22;4.60;;;;;20.00;100653.00;;;;2051704;28;21772;-66
2022/10/05 02:45:42;;;;;;;5.45;4.18;;;;;20.00;100658.00;;;;2051150;28;20763;-66
2022/10/05 02:46:49;;;;;;;4.45;3.95;;;;;20.00;100654.00;;;;2050057;28;20216;-66
2022/10/05 02:48:21;;;;;;;6.40;4.60;;;;;20.00;100648.00;;;;2049704;28;20224;-65
2022/10/05 02:49:31;;;;;;;4.40;4.00;;;;;20.00;100643.00;;;;2039046;28;20660;-66
2022/10/05 02:50:55;;;;;;;4.93;4.30;;;;;20.00;100642.00;;;;2051217;28;20215;-65
2022/10/05 02:51:56;;;;;;;4.35;3.95;;;;;20.00;100646.00;;;;2049795;28;20299;-66
2022/10/05 02:53:06;;;;;;;4.20;3.80;;;;;20.00;100643.00;;;;2050665;28;20219;-66
2022/10/05 02:55:00;;;;;;;4.30;3.90;;;;;20.00;100636.00;;;;2042736;29;20224;-66
2022/10/05 02:56:14;;;;;;;5.30;4.13;;;;;20.00;100634.00;;;;2041343;29;20251;-65
2022/10/05 02:57:20;;;;;;;4.80;4.00;;;;;20.00;100618.00;;;;2025515;29;20272;-65
2022/10/05 02:58:26;;;;;;;4.50;4.10;;;;;20.00;100641.00;;;;2027666;29;20288;-65
2022/10/05 02:59:38;;;;;;;4.82;4.20;;;;;20.00;100619.00;;;;2035016;29;20308;-66
2022/10/05 03:00:46;;;;;;;5.10;4.22;;;;;19.90;100636.00;;;;2036133;29;20311;-66
2022/10/05 03:01:51;;;;;;;4.40;4.00;;;;;20.00;100636.00;;;;2043506;28;20212;-66
2022/10/05 03:03:08;;;;;;;4.15;3.60;;;;;20.00;100635.00;;;;2045942;29;20212;-65
2022/10/05 03:04:33;;;;;;;4.53;4.13;;;;;20.00;100630.00;;;;2030419;29;20225;-65
2022/10/05 03:05:36;;;;;;;4.78;4.38;;;;;20.00;100629.00;;;;2041697;28;20634;-65
2022/10/05 03:06:50;;;;;;;4.25;3.85;;;;;20.00;100633.00;;;;2046356;28;20223;-66
2022/10/05 03:08:01;;;;;;;4.68;4.10;;;;;20.00;100633.00;;;;2053659;28;20225;-65
2022/10/05 03:09:03;;;;;;;4.63;3.83;;;;;20.00;100625.00;;;;2049708;28;20224;-66
2022/10/05 03:10:32;;;;;;;4.05;3.75;;;;;20.00;100625.00;;;;2042743;29;20227;-65
2022/10/05 03:11:38;;;;;;;5.18;4.07;;;;;20.00;100622.00;;;;2045800;28;20223;-66
2022/10/05 03:13:00;;;;;;;4.43;4.05;;;;;20.00;100622.00;;;;2051265;28;20211;-65
2022/10/05 03:14:23;;;;;;;4.30;3.90;;;;;20.00;100624.00;;;;2050789;28;20271;-66
2022/10/05 03:15:48;;;;;;;4.50;3.63;;;;;20.00;100622.00;;;;2050913;28;20220;-66
2022/10/05 03:17:21;;;;;;;4.18;3.78;;;;;20.00;100632.00;;;;2050781;28;20302;-66
2022/10/05 03:18:55;;;;;;;4.45;3.75;;;;;20.00;100624.00;;;;2044621;28;20789;-66
2022/10/05 03:20:30;;;;;;;4.50;4.10;;;;;20.00;100622.00;;;;2049510;28;20220;-66
2022/10/05 03:21:47;;;;;;;4.70;4.30;;;;;20.00;100609.00;;;;2048547;28;20215;-66
2022/10/05 03:22:57;;;;;;;4.32;3.90;;;;;20.00;100612.00;;;;2051146;28;20218;-66
2022/10/05 03:24:32;;;;;;;3.88;3.58;;;;;20.00;100608.00;;;;2053646;28;20231;-65
2022/10/05 03:25:40;;;;;;;4.20;3.80;;;;;20.00;100605.00;;;;2050492;28;20215;-66
2022/10/05 03:26:56;;;;;;;4.50;3.83;;;;;20.00;100608.00;;;;2047355;29;20271;-66
2022/10/05 03:28:05;;;;;;;4.15;3.75;;;;;20.00;100609.00;;;;2045075;28;20220;-65
2022/10/05 03:29:25;;;;;;;4.90;4.10;;;;;20.00;100607.00;;;;2053372;28;20305;-65
2022/10/05 03:30:26;;;;;;;4.97;4.18;;;;;20.00;100601.00;;;;2054186;28;20226;-65
2022/10/05 03:31:29;;;;;;;4.40;4.00;;;;;20.00;100605.00;;;;2051678;28;20298;-65
2022/10/05 03:32:46;;;;;;;4.70;4.30;;;;;20.00;100598.00;;;;2052154;28;20743;-66
2022/10/05 03:33:51;;;;;;;4.10;3.70;;;;;20.00;100609.00;;;;2052690;28;20705;-66
2022/10/05 03:35:15;;;;;;;5.25;3.95;;;;;20.00;100605.00;;;;2055014;28;20217;-65
2022/10/05 03:36:35;;;;;;;4.40;4.00;;;;;19.90;100598.00;;;;2051468;28;20219;-66
2022/10/05 03:38:16;;;;;;;3.97;3.58;;;;;19.90;100592.00;;;;2051175;28;20215;-66
2022/10/05 03:39:34;;;;;;;4.38;4.00;;;;;19.90;100591.00;;;;2035210;29;20244;-65
2022/10/05 03:40:39;;;;;;;4.70;4.30;;;;;19.90;100587.00;;;;2027829;29;20217;-65
2022/10/05 03:42:11;;;;;;;4.45;4.05;;;;;20.00;100554.00;;;;2030126;29;20590;-66
2022/10/05 03:43:45;;;;;;;4.25;3.85;;;;;20.00;100590.00;;;;2038217;29;20228;-66
2022/10/05 03:45:01;;;;;;;4.25;3.85;;;;;20.00;100592.00;;;;2044644;29;20288;-65
2022/10/05 03:46:29;;;;;;;4.30;4.00;;;;;19.90;100577.00;;;;2046201;28;20223;-65
2022/10/05 03:47:46;;;;;;;4.70;4.00;;;;;19.90;100578.00;;;;2051682;28;20219;-65
2022/10/05 03:48:52;;;;;;;3.55;3.25;;;;;19.90;100581.00;;;;2044447;29;20271;-66
2022/10/05 03:50:05;;;;;;;4.43;4.03;;;;;19.90;100595.00;;;;2044779;28;20232;-66
2022/10/05 03:51:20;;;;;;;4.05;3.60;;;;;20.00;100587.00;;;;2052325;28;20223;-66
2022/10/05 03:52:35;;;;;;;4.32;3.85;;;;;20.00;100582.00;;;;2037540;29;20700;-65
2022/10/05 03:53:42;;;;;;;4.57;3.95;;;;;19.90;100560.00;;;;2047933;29;20234;-66
2022/10/05 03:54:48;;;;;;;3.97;3.67;;;;;19.90;100593.00;;;;2043499;29;20311;-65
2022/10/05 03:56:10;;;;;;;4.22;3.92;;;;;19.90;100583.00;;;;2037238;29;20213;-66
2022/10/05 03:57:12;;;;;;;4.25;3.85;;;;;19.90;100573.00;;;;2046350;29;20220;-65
2022/10/05 03:58:17;;;;;;;4.72;4.13;;;;;19.90;100605.00;;;;2040623;29;20311;-65
2022/10/05 03:59:26;;;;;;;4.25;3.85;;;;;19.90;100594.00;;;;2044395;29;20213;-65
2022/10/05 04:00:26;;;;;;;4.15;3.75;;;;;19.90;100577.00;;;;2051562;28;20216;-66
2022/10/05 04:01:47;;;;;;;4.10;3.73;;;;;19.90;100577.00;;;;2050587;28;20215;-66
2022/10/05 04:03:08;;;;;;;4.88;4.18;;;;;19.90;100580.00;;;;2034659;29;20312;-66
2022/10/05 04:04:11;;;;;;;3.85;3.50;;;;;19.90;100574.00;;;;2054374;28;20214;-68
2022/10/05 04:05:14;;;;;;;4.30;3.90;;;;;19.90;100553.00;;;;2043464;29;20216;-65
2022/10/05 04:06:17;;;;;;;4.95;3.83;;;;;20.00;100581.00;;;;2043435;29;20216;-67
2022/10/05 04:07:29;;;;;;;4.85;4.00;;;;;19.90;100570.00;;;;2040317;29;20307;-66
2022/10/05 04:08:43;;;;;;;3.83;3.53;;;;;19.90;100572.00;;;;2049736;28;21263;-66
2022/10/05 04:09:44;;;;;;;4.57;4.18;;;;;19.90;100560.00;;;;2051811;28;20351;-66
2022/10/05 04:10:51;;;;;;;4.70;4.30;;;;;19.90;100571.00;;;;2051422;28;20220;-66
2022/10/05 04:12:00;;;;;;;4.03;3.67;;;;;19.90;100556.00;;;;2053498;28;20219;-65
2022/10/05 04:13:09;;;;;;;5.47;4.20;;;;;19.90;100552.00;;;;2051462;28;20216;-66
2022/10/05 04:14:12;;;;;;;4.60;4.20;;;;;19.90;100582.00;;;;2052189;28;20304;-65
2022/10/05 04:15:24;;;;;;;4.30;3.90;;;;;19.90;100567.00;;;;2044739;29;20213;-66
2022/10/05 04:16:27;;;;;;;5.38;3.90;;;;;19.90;100569.00;;;;2047381;29;20601;-66
2022/10/05 04:17:36;;;;;;;4.93;4.05;;;;;19.90;100556.00;;;;2040048;29;20221;-65
2022/10/05 04:18:47;;;;;;;3.60;3.30;;;;;19.90;100576.00;;;;2027036;29;20238;-65
2022/10/05 04:19:57;;;;;;;4.10;3.80;;;;;19.90;100569.00;;;;2048192;28;20282;-65
2022/10/05 04:21:00;;;;;;;4.28;3.88;;;;;19.90;100541.00;;;;2045236;28;20244;-66
2022/10/05 04:22:10;;;;;;;4.15;3.75;;;;;19.90;100563.00;;;;2051068;28;21092;-65
2022/10/05 04:23:37;;;;;;;3.75;3.45;;;;;19.90;100567.00;;;;2044638;29;20216;-65
2022/10/05 04:24:40;;;;;;;4.30;3.90;;;;;19.90;100569.00;;;;2053593;28;20223;-65
2022/10/05 04:25:48;;;;;;;4.10;3.78;;;;;19.90;100567.00;;;;2051380;28;20215;-65
2022/10/05 04:26:54;;;;;;;4.63;4.22;;;;;19.90;100536.00;;;;2051310;28;20286;-66
2022/10/05 04:28:01;;;;;;;3.60;3.30;;;;;19.90;100572.00;;;;2051605;28;20207;-65
2022/10/05 04:29:32;;;;;;;4.22;3.80;;;;;19.90;100566.00;;;;2052122;28;20352;-65
2022/10/05 04:30:32;;;;;;;4.40;4.00;;;;;19.90;100561.00;;;;2042264;29;20724;-68
2022/10/05 04:31:56;;;;;;;4.20;3.80;;;;;19.90;100544.00;;;;2051105;28;20209;-66
2022/10/05 04:32:56;;;;;;;4.25;3.85;;;;;19.90;100567.00;;;;2050744;28;20211;-66
2022/10/05 04:34:03;;;;;;;4.70;3.97;;;;;19.90;100570.00;;;;2044588;28;20343;-66
2022/10/05 04:35:31;;;;;;;3.90;3.50;;;;;19.90;100565.00;;;;2044065;28;20224;-66
2022/10/05 04:36:38;;;;;;;4.53;4.13;;;;;19.90;100542.00;;;;2052496;28;20564;-65
2022/10/05 04:38:15;;;;;;;3.80;3.50;;;;;19.90;100566.00;;;;2039610;29;20222;-65
2022/10/05 04:39:35;;;;;;;4.30;3.80;;;;;19.90;100557.00;;;;2045818;28;20303;-66
2022/10/05 04:40:53;;;;;;;4.07;3.67;;;;;19.90;100560.00;;;;2050862;28;21026;-66
2022/10/05 04:42:18;;;;;;;4.95;3.60;;;;;19.90;100570.00;;;;2050882;28;20216;-65
2022/10/05 04:43:37;;;;;;;4.93;3.58;;;;;19.90;100515.00;;;;2049676;28;20575;-66
2022/10/05 04:44:44;;;;;;;4.05;3.65;;;;;19.90;100582.00;;;;2051844;28;20568;-66
2022/10/05 04:46:06;;;;;;;4.63;3.90;;;;;19.90;100569.00;;;;2051747;28;20219;-66
2022/10/05 04:47:32;;;;;;;3.70;3.35;;;;;19.90;100542.00;;;;2051044;28;20612;-66
2022/10/05 04:48:38;;;;;;;4.75;4.28;;;;;19.90;100578.00;;;;2047083;29;20227;-66
2022/10/05 04:50:00;;;;;;;4.40;3.95;;;;;19.90;100571.00;;;;2053992;28;20220;-65
2022/10/05 04:51:11;;;;;;;4.68;3.70;;;;;19.90;100572.00;;;;2052334;28;20266;-66
2022/10/05 04:52:33;;;;;;;4.15;3.75;;;;;19.90;100569.00;;;;2046276;28;20251;-65
2022/10/05 04:53:41;;;;;;;5.35;4.15;;;;;19.90;100573.00;;;;2048266;28;20217;-65
2022/10/05 04:55:18;;;;;;;3.83;3.42;;;;;19.90;100572.00;;;;2038646;29;20231;-65
2022/10/05 04:56:26;;;;;;;4.53;4.18;;;;;19.90;100561.00;;;;2048591;28;20223;-66
2022/10/05 04:57:30;;;;;;;4.72;4.20;;;;;19.90;100580.00;;;;2051496;28;20310;-66
2022/10/05 04:58:33;;;;;;;4.20;3.63;;;;;19.90;100576.00;;;;2050925;28;20222;-65
2022/10/05 04:59:40;;;;;;;4.38;3.95;;;;;19.90;100576.00;;;;2050207;28;20298;-66
2022/10/05 05:00:59;;;;;;;5.18;4.60;;;;;19.90;100573.00;;;;2050948;28;20217;-65
2022/10/05 05:02:21;;;;;;;4.30;3.90;;;;;19.90;100574.00;;;;2053817;28;20215;-65
2022/10/05 05:03:30;;;;;;;4.97;4.10;;;;;19.90;100574.00;;;;2052260;28;20246;-65
2022/10/05 05:04:47;;;;;;;4.13;3.72;;;;;19.90;100571.00;;;;2050002;28;20298;-66
2022/10/05 05:06:12;;;;;;;5.13;4.57;;;;;19.90;100569.00;;;;2050934;28;20222;-65
2022/10/05 05:07:40;;;;;;;5.05;3.90;;;;;19.90;100568.00;;;;2048425;28;20274;-65
2022/10/05 05:09:00;;;;;;;6.00;4.47;;;;;19.90;100572.00;;;;2050611;28;20223;-66
2022/10/05 05:10:18;;;;;;;4.25;3.85;;;;;19.90;100574.00;;;;2050245;28;20262;-66
2022/10/05 05:11:31;;;;;;;4.88;4.40;;;;;19.90;100571.00;;;;2050664;28;20609;-66
2022/10/05 05:12:57;;;;;;;4.95;4.55;;;;;19.90;100557.00;;;;2046770;29;20239;-66
2022/10/05 05:14:19;;;;;;;4.40;4.00;;;;;19.90;100571.00;;;;2035962;29;20243;-66
2022/10/05 05:15:45;;;;;;;4.30;3.90;;;;;19.90;100576.00;;;;2040470;28;20212;-68
2022/10/05 05:17:11;;;;;;;4.30;3.90;;;;;19.90;100578.00;;;;2048553;28;20219;-66
2022/10/05 05:18:41;;;;;;;4.95;4.55;;;;;19.90;100578.00;;;;2053621;28;20286;-66
2022/10/05 05:19:53;;;;;;;4.40;4.00;;;;;19.80;100576.00;;;;2045785;28;20266;-66
2022/10/05 05:21:15;;;;;;;3.85;3.55;;;;;19.90;100574.00;;;;2035423;29;20695;-66
2022/10/05 05:22:24;;;;;;;5.18;4.15;;;;;19.90;100553.00;;;;2047651;28;20294;-65
2022/10/05 05:23:33;;;;;;;4.50;4.10;;;;;19.90;100573.00;;;;2034876;29;20212;-65
2022/10/05 05:25:05;;;;;;;4.57;4.18;;;;;19.90;100572.00;;;;2048700;28;20219;-65
2022/10/05 05:26:28;;;;;;;4.28;3.88;;;;;19.90;100575.00;;;;2051742;28;20298;-65
2022/10/05 05:28:02;;;;;;;4.57;4.18;;;;;19.90;100580.00;;;;2051503;28;20297;-66
2022/10/05 05:29:32;;;;;;;4.53;4.13;;;;;19.90;100577.00;;;;2050905;28;20230;-66
2022/10/05 05:30:47;;;;;;;4.35;3.88;;;;;19.90;100572.00;;;;2043545;29;20303;-66
2022/10/05 05:31:53;;;;;;;4.75;4.32;;;;;19.90;100565.00;;;;2038847;29;20262;-67
2022/10/05 05:32:56;;;;;;;5.88;3.80;;;;;20.00;100568.00;;;;2043688;28;20280;-66
2022/10/05 05:34:15;;;;;;;4.35;3.95;;;;;20.00;100570.00;;;;2051289;28;20225;-66
2022/10/05 05:35:40;;;;;;;4.40;4.00;;;;;20.00;100579.00;;;;2051490;28;20270;-67
2022/10/05 05:37:11;;;;;;;3.97;3.53;;;;;20.00;100570.00;;;;2051217;28;20595;-67
2022/10/05 05:38:28;;;;;;;4.53;4.10;;;;;20.10;100573.00;;;;2051091;28;20230;-67
2022/10/05 05:39:45;;;;;;;3.47;3.10;;;;;20.00;100577.00;;;;2054160;28;20560;-66
2022/10/05 05:41:03;;;;;;;4.20;3.80;;;;;20.00;100571.00;;;;2047456;28;20216;-66
2022/10/05 05:42:06;;;;;;;4.30;3.90;;;;;20.10;100578.00;;;;2037613;29;20228;-67
2022/10/05 05:43:48;;;;;;;3.60;3.30;;;;;20.00;100573.00;;;;2039850;28;20747;-67
2022/10/05 05:44:50;;;;;;;4.07;3.40;;;;;20.10;100576.00;;;;2050691;28;20278;-67
2022/10/05 05:46:03;;;;;;;4.05;3.65;;;;;20.10;100574.00;;;;2051534;28;20220;-67
2022/10/05 05:47:34;;;;;;;5.53;3.90;;;;;20.00;100574.00;;;;2041508;29;20312;-67
2022/10/05 05:48:37;;;;;;;4.80;4.20;;;;;20.00;100576.00;;;;2040336;28;20218;-66
2022/10/05 05:49:48;;;;;;;4.32;3.92;;;;;20.00;100572.00;;;;2044596;28;20208;-67
2022/10/05 05:50:57;;;;;;;4.68;4.13;;;;;20.00;100542.00;;;;2047456;28;20258;-69
2022/10/05 05:52:00;;;;;;;4.00;3.60;;;;;20.10;100568.00;;;;2037812;29;20230;-67
2022/10/05 05:53:02;;;;;;;3.65;3.35;;;;;20.10;100572.00;;;;2039785;28;20384;-67
2022/10/05 05:54:14;;;;;;;3.70;3.40;;;;;20.10;100574.00;;;;2046956;28;20208;-68
2022/10/05 05:55:25;;;;;;;3.92;3.60;;;;;20.10;100571.00;;;;2051218;28;20220;-67
2022/10/05 05:56:33;;;;;;;5.13;3.15;;;;;20.10;100562.00;;;;2050825;28;20230;-68
2022/10/05 05:57:39;;;;;;;4.00;3.60;;;;;20.00;100555.00;;;;2050581;28;20302;-67
2022/10/05 05:58:53;;;;;;;4.57;3.40;;;;;20.10;100568.00;;;;2043944;29;20224;-67
2022/10/05 06:00:06;;;;;;;4.00;3.47;;;;;20.10;100571.00;;;;2042598;28;20223;-67
2022/10/05 06:01:13;;;;;;;2.90;2.70;;;;;20.10;100547.00;;;;2039195;28;20300;-68
2022/10/05 06:02:16;;;;;;;3.75;3.35;;;;;20.20;100536.00;;;;2044760;28;20358;-66